Strona główna
METAR-TAF:

METAR-TAF

Lotnisko :

Araxá, Minas Gerais, Brazylia

Szerokość geograficzna: 19-33-38S, Długość geograficzna: 046-57-56W, wysokość: 999 m

Aktualna obserwacja pogody

Raport powstał 1 godzina i 23 minut temu, godzina 00:00 UTC
Wiatr 4 kt od południe
Temperatura 20°C
Wilgotność 100%
Ciśnienie 1014 hPa
Widzialność 10 km lub więcej
Brak chmur poniżej 1500 m i brak chmur cumulonimbus

METAR: SBAX 210000Z AUTO 19004KT CAVOK 20/20 Q1014

czas: 22:23 (01:23 UTC)


TAF: brakujący

Obserwacja i prognoza pogody dla ponad 4000 lotnisk (raport METAR i TAF).

Dostępne stacje oznaczono żółtymi i czerwonymi punktami na mapie.

Najedź kursorem aby zobaczyć nazwę stacji.

Kliknij aby zobaczyć obserwacje i prognozy pogody.

Aby zmienić mapę: kliknij na zielony przycisk z czarnym krzyżykiem, aby powiększyć; na zielony przycisk z myślnikiem, aby pomniejszyć; na zielone strzałki, aby przejść do map sąsiednich.


METAR-TAF: